createdAt,value
2017-11-28T00:02:26.494Z,1.50
2017-11-28T00:04:55.547Z,2.00
2017-11-28T00:07:23.681Z,1.50
2017-11-28T00:09:51.835Z,2.45
2017-11-28T00:12:20.001Z,1.40
2017-11-28T00:14:48.152Z,1.42
2017-11-28T00:17:16.305Z,1.92
2017-11-28T00:19:44.579Z,1.50
2017-11-28T00:22:12.715Z,1.40
2017-11-28T00:24:40.843Z,1.58
2017-11-28T00:27:17.015Z,1.40
2017-11-28T00:29:45.210Z,1.75
2017-11-28T00:32:14.118Z,3.67
2017-11-28T00:34:42.271Z,1.50
2017-11-28T00:37:11.158Z,1.70
2017-11-28T00:39:39.441Z,3.25
2017-11-28T00:42:08.347Z,1.40
2017-11-28T00:44:36.478Z,1.45
2017-11-28T00:47:04.645Z,1.42
2017-11-28T00:49:32.793Z,1.80
2017-11-28T00:52:00.953Z,1.40
2017-11-28T00:54:29.093Z,1.55
2017-11-28T00:56:57.273Z,1.65
2017-11-28T00:59:25.528Z,2.30
2017-11-28T01:01:53.662Z,1.98
2017-11-28T01:04:21.826Z,1.45
2017-11-28T01:06:49.947Z,1.40
2017-11-28T01:09:18.091Z,1.50
2017-11-28T01:11:46.217Z,1.60
2017-11-28T01:14:15.265Z,1.62
2017-11-28T01:16:43.415Z,1.40
2017-11-28T01:19:11.571Z,1.50
2017-11-28T01:21:39.842Z,1.70
2017-11-28T01:24:07.965Z,1.42
2017-11-28T01:26:36.109Z,1.60
2017-11-28T01:29:04.263Z,2.47
2017-11-28T01:31:32.394Z,1.70
2017-11-28T01:34:00.642Z,1.50
2017-11-28T01:36:28.769Z,1.40
2017-11-28T01:38:57.719Z,1.60
2017-11-28T01:41:25.846Z,2.12
2017-11-28T01:43:53.986Z,1.73
2017-11-28T01:46:22.146Z,1.60
2017-11-28T01:48:50.275Z,1.87
2017-11-28T01:51:18.406Z,1.87
2017-11-28T01:53:46.677Z,1.83
2017-11-28T01:56:14.807Z,2.78
2017-11-28T01:58:42.964Z,1.77
2017-11-28T02:01:11.095Z,1.90
2017-11-28T02:03:39.302Z,1.95
2017-11-28T02:06:08.203Z,2.28
2017-11-28T02:08:37.085Z,1.77
2017-11-28T02:11:06.143Z,2.00
2017-11-28T02:13:34.277Z,1.80
2017-11-28T02:16:03.234Z,2.08
2017-11-28T02:18:32.126Z,2.53
2017-11-28T02:21:01.045Z,2.03
2017-11-28T02:23:29.165Z,2.83
2017-11-28T02:25:57.310Z,2.12
2017-11-28T02:28:25.583Z,2.37
2017-11-28T02:30:53.710Z,2.12
2017-11-28T02:33:22.649Z,2.22
2017-11-28T02:35:50.771Z,2.40
2017-11-28T02:38:18.903Z,2.00
2017-11-28T02:40:47.051Z,2.17
2017-11-28T02:43:15.179Z,2.28
2017-11-28T02:45:43.442Z,2.15
2017-11-28T02:48:11.583Z,2.37
2017-11-28T02:50:40.487Z,2.30
2017-11-28T02:53:08.623Z,2.33
2017-11-28T02:55:36.791Z,2.30
2017-11-28T02:58:04.922Z,2.58
2017-11-28T03:00:33.045Z,2.62
2017-11-28T03:03:01.330Z,2.85
2017-11-28T03:05:29.454Z,3.03
2017-11-28T03:07:57.617Z,5.15
2017-11-28T03:10:25.742Z,3.25
2017-11-28T03:12:53.915Z,3.00
2017-11-28T03:15:22.054Z,2.10
2017-11-28T03:17:50.173Z,2.50
2017-11-28T03:20:18.463Z,4.95
2017-11-28T03:22:46.609Z,2.33
2017-11-28T03:25:14.795Z,3.65
2017-11-28T03:27:42.921Z,2.45
2017-11-28T03:30:11.085Z,2.10
2017-11-28T03:32:39.215Z,2.50
2017-11-28T03:35:07.498Z,2.50
2017-11-28T03:37:35.657Z,2.20
2017-11-28T03:40:03.795Z,2.33
2017-11-28T03:42:31.958Z,5.28
2017-11-28T03:45:00.097Z,2.70
2017-11-28T03:47:28.266Z,2.20
2017-11-28T03:49:56.381Z,2.72
2017-11-28T03:52:24.514Z,2.33
2017-11-28T03:54:52.774Z,2.33
2017-11-28T03:57:20.918Z,5.40
2017-11-28T03:59:49.813Z,2.37
2017-11-28T04:02:18.869Z,2.55
2017-11-28T04:04:47.037Z,2.62
2017-11-28T04:07:15.182Z,2.95
2017-11-28T04:09:43.365Z,3.25
2017-11-28T04:12:11.528Z,2.95
2017-11-28T04:14:39.665Z,3.45
2017-11-28T04:17:07.821Z,2.58
2017-11-28T04:19:35.963Z,2.05
2017-11-28T04:22:04.139Z,2.45
2017-11-28T04:24:32.277Z,2.42
2017-11-28T04:27:01.305Z,3.03
2017-11-28T04:29:29.431Z,3.15
2017-11-28T04:31:58.367Z,2.20
2017-11-28T04:34:26.489Z,2.90
2017-11-28T04:36:54.626Z,2.92
2017-11-28T04:39:22.805Z,5.53
2017-11-28T04:41:50.928Z,2.62
2017-11-28T04:44:19.065Z,2.80
2017-11-28T04:46:47.343Z,2.45
2017-11-28T04:49:15.499Z,2.62
2017-11-28T04:51:43.649Z,3.08
2017-11-28T04:54:11.785Z,7.22
2017-11-28T04:56:40.706Z,3.53
2017-11-28T04:59:08.852Z,4.53
2017-11-28T05:01:37.790Z,8.40
2017-11-28T05:04:06.055Z,6.72
2017-11-28T05:06:34.185Z,4.55
2017-11-28T05:09:02.371Z,3.55
2017-11-28T05:11:30.499Z,4.35
2017-11-28T05:13:58.671Z,2.83
2017-11-28T05:16:26.858Z,5.50
2017-11-28T05:18:55.013Z,4.22
2017-11-28T05:21:23.158Z,5.60
2017-11-28T05:23:51.321Z,5.10
2017-11-28T05:26:19.454Z,5.18
2017-11-28T05:28:47.641Z,2.80
2017-11-28T05:31:16.582Z,4.00
2017-11-28T05:33:44.709Z,8.25
2017-11-28T05:36:13.765Z,13.45
2017-11-28T05:38:41.907Z,11.20
2017-11-28T05:41:10.037Z,4.95
2017-11-28T05:43:38.198Z,6.62
2017-11-28T05:46:06.344Z,4.20
2017-11-28T05:48:34.506Z,7.72
2017-11-28T05:51:02.634Z,2.95
2017-11-28T05:53:31.586Z,2.72
2017-11-28T05:55:59.709Z,3.67
2017-11-28T05:58:28.643Z,3.65
2017-11-28T06:00:56.769Z,3.00
2017-11-28T06:03:25.679Z,2.97
2017-11-28T06:05:54.701Z,5.28
2017-11-28T06:08:22.847Z,2.62
2017-11-28T06:10:51.806Z,2.65
2017-11-28T06:13:19.972Z,2.37
2017-11-28T06:15:48.123Z,4.00
2017-11-28T06:18:16.286Z,3.15
2017-11-28T06:20:44.439Z,2.60
2017-11-28T06:23:13.325Z,2.55
2017-11-28T06:25:41.597Z,2.67
2017-11-28T06:28:09.739Z,2.50
2017-11-28T06:30:37.860Z,3.20
2017-11-28T06:33:06.022Z,3.60
2017-11-28T06:35:34.922Z,2.70
2017-11-28T06:38:03.080Z,2.60
2017-11-28T06:40:31.214Z,3.00
2017-11-28T06:42:59.479Z,2.70
2017-11-28T06:45:27.644Z,2.33
2017-11-28T06:47:55.766Z,2.35
2017-11-28T06:50:24.670Z,3.30
2017-11-28T06:52:52.828Z,6.18
2017-11-28T06:55:21.721Z,5.40
2017-11-28T06:57:50.677Z,2.12
2017-11-28T07:00:18.806Z,2.50
2017-11-28T07:02:46.939Z,7.28
2017-11-28T07:05:15.214Z,2.30
2017-11-28T07:07:43.363Z,2.00
2017-11-28T07:10:11.585Z,3.08
2017-11-28T07:12:39.706Z,2.15
2017-11-28T07:15:07.850Z,2.25
2017-11-28T07:17:36.131Z,2.10
2017-11-28T07:20:04.279Z,1.80
2017-11-28T07:22:33.203Z,2.55
2017-11-28T07:25:01.338Z,5.30
2017-11-28T07:27:30.240Z,1.75
2017-11-28T07:29:59.195Z,2.22
2017-11-28T07:32:27.324Z,1.67
2017-11-28T07:34:55.502Z,1.77
2017-11-28T07:37:23.637Z,2.67
2017-11-28T07:39:51.762Z,1.90
2017-11-28T07:42:19.922Z,1.70
2017-11-28T07:44:48.053Z,1.80
2017-11-28T07:47:17.097Z,2.17
2017-11-28T07:49:45.245Z,1.77
2017-11-28T07:52:13.368Z,1.60
2017-11-28T07:54:41.551Z,1.77
2017-11-28T07:57:09.696Z,1.60
2017-11-28T07:59:37.855Z,1.73
2017-11-28T08:02:05.982Z,1.62
2017-11-28T08:04:35.054Z,1.75
2017-11-28T08:07:03.186Z,1.77
2017-11-28T08:09:31.312Z,1.65
2017-11-28T08:11:59.489Z,1.58
2017-11-28T08:14:27.642Z,1.50
2017-11-28T08:16:55.805Z,1.60
2017-11-28T08:19:23.935Z,1.58
2017-11-28T08:21:52.129Z,1.40
2017-11-28T08:24:20.276Z,1.73
2017-11-28T08:26:49.164Z,1.42
2017-11-28T08:29:18.083Z,1.45
2017-11-28T08:31:46.205Z,1.40
2017-11-28T08:34:14.358Z,1.60
2017-11-28T08:36:42.491Z,2.08
2017-11-28T08:39:10.617Z,1.40
2017-11-28T08:41:46.161Z,2.17
2017-11-28T08:44:21.546Z,1.37
2017-11-28T08:46:49.828Z,1.50
2017-11-28T08:49:17.963Z,1.60
2017-11-28T08:51:46.115Z,1.33
2017-11-28T08:54:14.235Z,1.40
2017-11-28T08:56:43.189Z,1.50
2017-11-28T08:59:11.339Z,2.70
2017-11-28T09:01:40.229Z,1.60
2017-11-28T09:04:08.511Z,1.60
2017-11-28T09:06:36.649Z,1.55
2017-11-28T09:09:05.534Z,1.75
2017-11-28T09:11:33.687Z,1.60
2017-11-28T09:14:01.883Z,2.30
2017-11-28T09:16:30.012Z,1.50
2017-11-28T09:18:58.283Z,1.70
2017-11-28T09:21:26.417Z,1.42
2017-11-28T09:23:54.558Z,2.05
2017-11-28T09:26:23.476Z,1.40
2017-11-28T09:28:51.607Z,1.60
2017-11-28T09:31:19.762Z,1.85
2017-11-28T09:33:47.901Z,1.60
2017-11-28T09:36:16.201Z,1.70
2017-11-28T09:38:44.350Z,1.73
2017-11-28T09:41:12.477Z,1.60
2017-11-28T09:43:40.649Z,1.40
2017-11-28T09:46:08.796Z,1.60
2017-11-28T09:48:36.929Z,1.23
2017-11-28T09:51:05.092Z,1.65
2017-11-28T09:53:33.988Z,1.50
2017-11-28T09:56:02.953Z,1.65
2017-11-28T09:58:31.078Z,1.40
2017-11-28T10:00:59.221Z,1.42
2017-11-28T10:03:28.165Z,1.50
2017-11-28T10:05:56.298Z,1.27
2017-11-28T10:08:24.445Z,1.20
2017-11-28T10:10:52.590Z,1.40
2017-11-28T10:13:20.725Z,1.33
2017-11-28T10:15:49.770Z,1.40
2017-11-28T10:18:17.893Z,1.33
2017-11-28T10:20:46.054Z,1.65
2017-11-28T10:23:14.215Z,1.50
2017-11-28T10:25:43.149Z,2.40
2017-11-28T10:28:11.276Z,1.58
2017-11-28T10:30:40.346Z,2.75
2017-11-28T10:33:08.474Z,1.50
2017-11-28T10:35:36.751Z,1.80
2017-11-28T10:38:04.879Z,1.42
2017-11-28T10:40:33.044Z,1.50
2017-11-28T10:43:01.223Z,1.55
2017-11-28T10:45:29.342Z,1.58
2017-11-28T10:47:57.506Z,1.30
2017-11-28T10:50:25.645Z,1.40
2017-11-28T10:53:10.288Z,1.40
2017-11-28T10:55:38.423Z,1.30
2017-11-28T10:58:06.550Z,2.47
2017-11-28T11:00:34.721Z,1.50
2017-11-28T11:03:02.845Z,1.55
2017-11-28T11:05:31.876Z,2.30
2017-11-28T11:08:00.018Z,1.50
2017-11-28T11:10:28.219Z,2.20
2017-11-28T11:12:56.363Z,1.50
2017-11-28T11:15:24.505Z,1.87
2017-11-28T11:17:53.443Z,2.97
2017-11-28T11:20:21.580Z,2.08
2017-11-28T11:22:49.747Z,1.40
2017-11-28T11:25:18.652Z,1.35
2017-11-28T11:27:46.825Z,1.35
2017-11-28T11:30:14.969Z,1.50
2017-11-28T11:32:43.906Z,1.40
2017-11-28T11:35:24.868Z,1.40
2017-11-28T11:37:53.162Z,1.70
2017-11-28T11:40:21.318Z,1.60
2017-11-28T11:42:49.456Z,1.50
2017-11-28T11:45:17.678Z,1.55
2017-11-28T11:47:45.818Z,1.42
2017-11-28T11:50:14.737Z,1.92
2017-11-28T11:52:42.886Z,1.75
2017-11-28T11:55:11.781Z,1.40
2017-11-28T11:57:39.905Z,1.30
2017-11-28T12:00:08.105Z,1.70
2017-11-28T12:02:37.010Z,1.80
2017-11-28T12:05:05.979Z,2.15
2017-11-28T12:07:34.138Z,1.65
2017-11-28T12:10:02.269Z,2.87
2017-11-28T12:12:31.680Z,1.40
2017-11-28T12:14:59.842Z,1.50
2017-11-28T12:17:28.002Z,1.60
2017-11-28T12:19:56.907Z,1.55
2017-11-28T12:22:25.033Z,1.40
2017-11-28T12:24:53.218Z,1.60
2017-11-28T12:27:21.353Z,1.40
2017-11-28T12:29:49.513Z,1.50
2017-11-28T12:32:17.642Z,1.27
2017-11-28T12:34:45.914Z,1.55
2017-11-28T12:37:14.837Z,1.73
2017-11-28T12:39:42.976Z,1.48
2017-11-28T12:42:11.146Z,1.75
2017-11-28T12:44:39.290Z,1.50
2017-11-28T12:47:07.455Z,1.33
2017-11-28T12:49:35.590Z,1.37
2017-11-28T12:52:04.486Z,1.50
2017-11-28T12:54:32.781Z,1.70
2017-11-28T12:57:00.923Z,2.12
2017-11-28T12:59:29.110Z,1.30
2017-11-28T13:01:57.246Z,1.60
2017-11-28T13:04:25.411Z,1.48
2017-11-28T13:06:53.540Z,1.42
2017-11-28T13:09:21.700Z,1.60
2017-11-28T13:11:49.942Z,1.52
2017-11-28T13:14:18.893Z,1.60
2017-11-28T13:16:47.159Z,1.52
2017-11-28T13:19:15.351Z,1.30
2017-11-28T13:21:43.511Z,1.45
2017-11-28T13:24:11.681Z,1.37
2017-11-28T13:26:39.817Z,1.35
2017-11-28T13:29:08.825Z,1.30
2017-11-28T13:31:36.963Z,1.75
2017-11-28T13:34:05.208Z,1.40
2017-11-28T13:36:33.335Z,1.48
2017-11-28T13:39:03.594Z,1.40
2017-11-28T13:41:31.739Z,1.30
2017-11-28T13:43:59.890Z,1.37
2017-11-28T13:46:28.070Z,1.23
2017-11-28T13:48:56.189Z,1.50
2017-11-28T13:51:24.390Z,1.40
2017-11-28T13:53:52.530Z,2.75
2017-11-28T13:56:20.725Z,1.40
2017-11-28T13:58:48.858Z,2.50
2017-11-28T14:01:17.754Z,1.37
2017-11-28T14:03:45.942Z,1.70
2017-11-28T14:06:14.225Z,1.50
2017-11-28T14:08:42.345Z,1.87
2017-11-28T14:11:10.554Z,1.33
2017-11-28T14:13:39.462Z,1.70
2017-11-28T14:16:07.652Z,1.58
2017-11-28T14:18:35.808Z,1.42
2017-11-28T14:21:03.941Z,1.73
2017-11-28T14:23:32.991Z,1.67
2017-11-28T14:26:01.182Z,1.95
2017-11-28T14:28:29.298Z,2.45
2017-11-28T14:30:57.474Z,1.70
2017-11-28T14:33:25.618Z,1.60
2017-11-28T14:35:53.770Z,1.33
2017-11-28T14:38:21.938Z,1.58
2017-11-28T14:40:50.157Z,1.50
2017-11-28T14:43:19.060Z,1.40
2017-11-28T14:45:47.178Z,1.50
2017-11-28T14:48:15.336Z,1.50
2017-11-28T14:50:43.487Z,2.15
2017-11-28T14:53:11.617Z,1.48
2017-11-28T14:55:39.771Z,1.20
2017-11-28T14:58:07.961Z,1.30
2017-11-28T15:00:36.102Z,1.85
2017-11-28T15:03:04.230Z,1.50
2017-11-28T15:05:33.163Z,1.62
2017-11-28T15:08:01.287Z,1.30
2017-11-28T15:10:29.444Z,1.60
2017-11-28T15:12:57.570Z,1.40
2017-11-28T15:15:25.778Z,1.75
2017-11-28T15:17:53.902Z,1.30
2017-11-28T15:20:22.049Z,1.80
2017-11-28T15:22:50.185Z,1.60
2017-11-28T15:25:18.327Z,1.50
2017-11-28T15:27:46.486Z,1.30
2017-11-28T15:30:15.399Z,4.30
2017-11-28T15:32:43.683Z,1.50
2017-11-28T15:35:11.818Z,1.85
2017-11-28T15:37:40.765Z,2.20
2017-11-28T15:40:08.898Z,1.77
2017-11-28T15:42:37.058Z,1.60
2017-11-28T15:45:06.016Z,1.60
2017-11-28T15:47:34.156Z,1.65
2017-11-28T15:50:02.465Z,1.90
2017-11-28T15:52:30.607Z,1.60
2017-11-28T15:54:58.730Z,2.17
2017-11-28T15:57:26.887Z,2.20
2017-11-28T15:59:55.026Z,1.85
2017-11-28T16:02:23.193Z,1.62
2017-11-28T16:04:51.329Z,2.58
2017-11-28T16:07:19.531Z,5.87
2017-11-28T16:09:47.683Z,3.35
2017-11-28T16:12:16.652Z,3.55
2017-11-28T16:14:44.822Z,4.40
2017-11-28T16:17:13.004Z,4.20
2017-11-28T16:19:41.130Z,5.03
2017-11-28T16:22:09.273Z,2.12
2017-11-28T16:24:37.446Z,2.00
2017-11-28T16:27:06.350Z,1.73
2017-11-28T16:32:44.870Z,2.10
2017-11-28T16:35:13.792Z,2.00
2017-11-28T16:37:41.915Z,3.03
2017-11-28T16:40:10.093Z,2.30
2017-11-28T16:42:38.240Z,2.50
2017-11-28T16:45:06.448Z,2.45
2017-11-28T16:47:34.619Z,2.28
2017-11-28T16:50:02.760Z,2.37
2017-11-28T16:52:30.956Z,3.05
2017-11-28T16:54:59.094Z,2.50
2017-11-28T16:57:27.285Z,2.60
2017-11-28T16:59:55.415Z,2.53
2017-11-28T17:02:23.770Z,2.67
2017-11-28T17:04:52.698Z,2.75
2017-11-28T17:07:20.834Z,2.50
2017-11-28T17:09:49.789Z,3.20
2017-11-28T17:12:17.947Z,5.37
2017-11-28T17:14:46.255Z,6.30
2017-11-28T17:17:14.434Z,5.70
2017-11-28T17:19:42.582Z,8.55
2017-11-28T17:22:10.933Z,4.12
2017-11-28T17:24:39.060Z,3.85
2017-11-28T17:27:07.233Z,4.00
2017-11-28T17:29:35.368Z,4.28
2017-11-28T17:32:03.745Z,3.40
2017-11-28T17:34:31.902Z,4.53
2017-11-28T17:37:00.054Z,3.33
2017-11-28T17:39:28.993Z,3.37
2017-11-28T17:41:57.127Z,3.53
2017-11-28T17:44:25.286Z,4.32
2017-11-28T17:46:54.193Z,3.53
2017-11-28T17:49:23.139Z,4.53
2017-11-28T17:51:51.270Z,5.15
2017-11-28T17:54:19.399Z,3.92
2017-11-28T17:56:47.662Z,4.75
2017-11-28T17:59:15.805Z,4.00
2017-11-28T18:01:43.950Z,3.20
2017-11-28T18:04:12.852Z,5.57
2017-11-28T18:06:41.003Z,6.53
2017-11-28T18:09:09.925Z,9.50
2017-11-28T18:11:38.066Z,4.60
2017-11-28T18:14:10.244Z,4.20
2017-11-28T18:16:38.379Z,7.57
2017-11-28T18:19:06.605Z,6.85
2017-11-28T18:21:34.754Z,4.87
2017-11-28T18:24:02.929Z,5.20
2017-11-28T18:26:31.058Z,6.22
2017-11-28T18:28:59.197Z,6.50
2017-11-28T18:31:28.154Z,5.03
2017-11-28T18:33:56.278Z,6.78
2017-11-28T18:36:24.531Z,6.20
2017-11-28T18:38:52.674Z,5.97
2017-11-28T18:41:20.817Z,5.10
2017-11-28T18:43:48.982Z,5.10
2017-11-28T18:46:17.133Z,5.50
2017-11-28T18:48:45.447Z,4.43
2017-11-28T18:51:13.588Z,3.87
2017-11-28T18:53:41.763Z,4.57
2017-11-28T18:56:09.909Z,4.15
2017-11-28T18:58:38.825Z,3.95
2017-11-28T19:01:06.977Z,4.35
2017-11-28T19:03:35.877Z,4.10
2017-11-28T19:06:04.161Z,4.00
2017-11-28T19:08:32.286Z,4.50
2017-11-28T19:11:00.455Z,4.12
2017-11-28T19:13:28.616Z,5.95
2017-11-28T19:15:56.801Z,4.80
2017-11-28T19:18:24.965Z,4.70
2017-11-28T19:20:53.167Z,5.00
2017-11-28T19:23:21.319Z,5.30
2017-11-28T19:25:49.446Z,5.28
2017-11-28T19:28:17.613Z,5.65
2017-11-28T19:30:45.763Z,6.05
2017-11-28T19:33:13.919Z,4.85
2017-11-28T19:35:42.071Z,5.70
2017-11-28T19:38:10.202Z,6.57
2017-11-28T19:40:39.118Z,6.03
2017-11-28T19:43:07.264Z,6.00
2017-11-28T19:45:36.193Z,6.62
2017-11-28T19:48:04.338Z,8.60
2017-11-28T19:50:32.516Z,8.30
2017-11-28T19:53:00.687Z,8.48
2017-11-28T19:55:28.879Z,8.30
2017-11-28T19:57:57.020Z,7.45
2017-11-28T20:00:25.959Z,9.10
2017-11-28T20:03:03.623Z,8.48
2017-11-28T20:05:31.782Z,8.60
2017-11-28T20:08:00.733Z,9.32
2017-11-28T20:10:28.866Z,8.55
2017-11-28T20:12:57.072Z,10.20
2017-11-28T20:15:25.240Z,10.93
2017-11-28T20:17:53.434Z,8.70
2017-11-28T20:20:21.606Z,8.70
2017-11-28T20:22:49.750Z,7.55
2017-11-28T20:25:17.911Z,6.75
2017-11-28T20:27:46.046Z,6.55
2017-11-28T20:30:14.335Z,6.07
2017-11-28T20:32:43.230Z,6.03
2017-11-28T20:35:11.361Z,6.25
2017-11-28T20:37:39.557Z,5.72
2017-11-28T20:40:07.706Z,5.50
2017-11-28T20:42:35.830Z,5.75
2017-11-28T20:45:37.404Z,5.55
2017-11-28T20:48:05.571Z,5.35
2017-11-28T20:50:33.747Z,5.50
2017-11-28T20:53:01.916Z,5.32
2017-11-28T20:55:30.092Z,6.28
2017-11-28T20:57:58.267Z,9.15
2017-11-28T21:00:26.414Z,5.25
2017-11-28T21:02:55.498Z,5.35
2017-11-28T21:05:23.628Z,5.45
2017-11-28T21:07:51.788Z,5.62
2017-11-28T21:10:19.958Z,4.78
2017-11-28T21:12:48.129Z,6.07
2017-11-28T21:15:16.302Z,5.07
2017-11-28T21:17:44.479Z,6.05
2017-11-28T21:20:12.634Z,7.07
2017-11-28T21:22:41.529Z,6.40
2017-11-28T21:25:10.598Z,6.30
2017-11-28T21:27:38.743Z,7.40
2017-11-28T21:30:06.925Z,6.80
2017-11-28T21:32:35.073Z,8.10
2017-11-28T21:35:03.236Z,7.30
2017-11-28T21:37:31.405Z,6.90
2017-11-28T21:39:59.543Z,6.80
2017-11-28T21:42:28.598Z,7.28
2017-11-28T21:44:56.742Z,6.85
2017-11-28T21:47:24.920Z,6.37
2017-11-28T21:49:53.100Z,7.07
2017-11-28T21:52:21.270Z,7.30
2017-11-28T21:54:49.407Z,7.05
2017-11-28T21:57:17.698Z,7.18
2017-11-28T21:59:46.629Z,6.97
2017-11-28T22:02:14.759Z,7.87
2017-11-28T22:04:43.706Z,10.27
2017-11-28T22:07:11.858Z,8.10
2017-11-28T22:09:40.004Z,8.27
2017-11-28T22:12:08.958Z,8.25
2017-11-28T22:14:37.089Z,8.45
2017-11-28T22:17:05.391Z,9.02
2017-11-28T22:19:33.511Z,8.20
2017-11-28T22:22:02.426Z,11.25
2017-11-28T22:24:30.574Z,8.50
2017-11-28T22:26:59.470Z,8.38
2017-11-28T22:29:27.655Z,8.35
2017-11-28T22:31:55.793Z,9.20
2017-11-28T22:34:24.063Z,7.93
2017-11-28T22:36:52.194Z,8.82
2017-11-28T22:39:20.326Z,10.20
2017-11-28T22:41:49.277Z,8.60
2017-11-28T22:44:17.406Z,9.85
2017-11-28T22:46:45.559Z,8.57
2017-11-28T22:49:13.706Z,9.20
2017-11-28T22:51:41.825Z,9.00
2017-11-28T22:54:09.982Z,9.88
2017-11-28T22:56:38.895Z,9.45
2017-11-28T22:59:07.168Z,7.53
2017-11-28T23:01:35.293Z,8.52
2017-11-28T23:04:03.487Z,8.18
2017-11-28T23:06:31.614Z,7.90
2017-11-28T23:08:59.758Z,8.55
2017-11-28T23:11:27.921Z,9.10
2017-11-28T23:13:56.049Z,8.13
2017-11-28T23:16:24.343Z,8.27
2017-11-28T23:18:52.509Z,8.43
2017-11-28T23:21:20.651Z,8.93
2017-11-28T23:23:48.785Z,8.30
2017-11-28T23:26:17.714Z,7.95
2017-11-28T23:28:45.846Z,8.75
2017-11-28T23:31:14.868Z,8.07
2017-11-28T23:33:43.030Z,10.35
2017-11-28T23:36:11.191Z,8.00
2017-11-28T23:38:40.100Z,8.75
2017-11-28T23:41:08.238Z,8.27
2017-11-28T23:43:36.379Z,10.25
2017-11-28T23:46:04.650Z,9.65
2017-11-28T23:48:32.796Z,12.32
2017-11-28T23:51:01.725Z,19.90
2017-11-28T23:53:29.876Z,21.25
2017-11-28T23:55:58.801Z,22.15
2017-11-28T23:58:26.957Z,12.07
